sensor_id;sensor_type;location;lat;lon;timestamp;P1;durP1;ratioP1;P2;durP2;ratioP2
15669;SDS011;18524;45.190;5.732;2023-09-12T00:01:37;11.33;;;9.90;;
15669;SDS011;18524;45.190;5.732;2023-09-12T00:06:28;10.40;;;9.40;;
15669;SDS011;18524;45.190;5.732;2023-09-12T00:11:18;10.83;;;9.80;;
15669;SDS011;18524;45.190;5.732;2023-09-12T00:16:09;10.33;;;9.53;;
15669;SDS011;18524;45.190;5.732;2023-09-12T00:21:02;10.53;;;9.60;;
15669;SDS011;18524;45.190;5.732;2023-09-12T00:25:52;9.97;;;9.17;;
15669;SDS011;18524;45.190;5.732;2023-09-12T00:30:43;10.47;;;9.57;;
15669;SDS011;18524;45.190;5.732;2023-09-12T00:35:33;10.13;;;9.23;;
15669;SDS011;18524;45.190;5.732;2023-09-12T00:40:24;10.37;;;9.43;;
15669;SDS011;18524;45.190;5.732;2023-09-12T00:45:14;11.63;;;10.63;;
15669;SDS011;18524;45.190;5.732;2023-09-12T00:50:04;11.30;;;10.30;;
15669;SDS011;18524;45.190;5.732;2023-09-12T00:54:55;11.73;;;10.73;;
15669;SDS011;18524;45.190;5.732;2023-09-12T00:59:46;11.23;;;10.27;;
15669;SDS011;18524;45.190;5.732;2023-09-12T01:04:37;11.50;;;10.53;;
15669;SDS011;18524;45.190;5.732;2023-09-12T01:09:28;11.10;;;10.20;;
15669;SDS011;18524;45.190;5.732;2023-09-12T01:14:18;12.00;;;10.80;;
15669;SDS011;18524;45.190;5.732;2023-09-12T01:19:08;11.60;;;10.50;;
15669;SDS011;18524;45.190;5.732;2023-09-12T01:29:23;10.87;;;9.90;;
15669;SDS011;18524;45.190;5.732;2023-09-12T01:34:14;12.33;;;11.07;;
15669;SDS011;18524;45.190;5.732;2023-09-12T01:39:05;11.67;;;10.57;;
15669;SDS011;18524;45.190;5.732;2023-09-12T01:43:56;10.63;;;9.67;;
15669;SDS011;18524;45.190;5.732;2023-09-12T01:48:49;12.73;;;11.40;;
15669;SDS011;18524;45.190;5.732;2023-09-12T01:53:41;11.13;;;10.30;;
15669;SDS011;18524;45.190;5.732;2023-09-12T01:58:35;11.33;;;10.43;;
15669;SDS011;18524;45.190;5.732;2023-09-12T02:03:26;11.43;;;10.33;;
15669;SDS011;18524;45.190;5.732;2023-09-12T02:08:16;11.40;;;10.30;;
15669;SDS011;18524;45.190;5.732;2023-09-12T02:13:06;10.73;;;9.70;;
15669;SDS011;18524;45.190;5.732;2023-09-12T02:17:57;10.90;;;9.83;;
15669;SDS011;18524;45.190;5.732;2023-09-12T02:22:47;10.90;;;9.87;;
15669;SDS011;18524;45.190;5.732;2023-09-12T02:27:38;10.70;;;9.80;;
15669;SDS011;18524;45.190;5.732;2023-09-12T02:32:28;11.13;;;10.00;;
15669;SDS011;18524;45.190;5.732;2023-09-12T02:37:19;11.03;;;10.13;;
15669;SDS011;18524;45.190;5.732;2023-09-12T02:42:10;12.00;;;10.50;;
15669;SDS011;18524;45.190;5.732;2023-09-12T02:47:00;10.83;;;9.83;;
15669;SDS011;18524;45.190;5.732;2023-09-12T02:51:51;11.13;;;10.13;;
15669;SDS011;18524;45.190;5.732;2023-09-12T02:56:41;11.43;;;10.43;;
15669;SDS011;18524;45.190;5.732;2023-09-12T03:01:32;11.50;;;10.40;;
15669;SDS011;18524;45.190;5.732;2023-09-12T03:06:22;11.00;;;10.10;;
15669;SDS011;18524;45.190;5.732;2023-09-12T03:11:12;11.20;;;10.10;;
15669;SDS011;18524;45.190;5.732;2023-09-12T03:16:03;10.83;;;9.93;;
15669;SDS011;18524;45.190;5.732;2023-09-12T03:20:54;11.30;;;10.40;;
15669;SDS011;18524;45.190;5.732;2023-09-12T03:25:44;11.83;;;10.63;;
15669;SDS011;18524;45.190;5.732;2023-09-12T03:30:36;11.33;;;10.23;;
15669;SDS011;18524;45.190;5.732;2023-09-12T03:35:31;11.57;;;10.50;;
15669;SDS011;18524;45.190;5.732;2023-09-12T03:40:22;11.07;;;10.07;;
15669;SDS011;18524;45.190;5.732;2023-09-12T03:45:12;10.80;;;9.77;;
15669;SDS011;18524;45.190;5.732;2023-09-12T03:50:03;11.03;;;9.67;;
15669;SDS011;18524;45.190;5.732;2023-09-12T03:54:53;10.43;;;9.63;;
15669;SDS011;18524;45.190;5.732;2023-09-12T03:59:44;10.40;;;9.50;;
15669;SDS011;18524;45.190;5.732;2023-09-12T04:04:36;9.73;;;8.77;;
15669;SDS011;18524;45.190;5.732;2023-09-12T04:09:26;10.23;;;9.33;;
15669;SDS011;18524;45.190;5.732;2023-09-12T04:14:17;11.23;;;10.23;;
15669;SDS011;18524;45.190;5.732;2023-09-12T04:19:08;12.63;;;10.43;;
15669;SDS011;18524;45.190;5.732;2023-09-12T04:23:58;11.00;;;9.93;;
15669;SDS011;18524;45.190;5.732;2023-09-12T04:28:48;10.47;;;9.67;;
15669;SDS011;18524;45.190;5.732;2023-09-12T04:33:39;10.63;;;9.63;;
15669;SDS011;18524;45.190;5.732;2023-09-12T04:38:29;10.97;;;10.07;;
15669;SDS011;18524;45.190;5.732;2023-09-12T04:43:20;11.80;;;10.67;;
15669;SDS011;18524;45.190;5.732;2023-09-12T04:48:10;10.93;;;9.93;;
15669;SDS011;18524;45.190;5.732;2023-09-12T04:53:01;11.60;;;10.53;;
15669;SDS011;18524;45.190;5.732;2023-09-12T04:57:51;11.17;;;10.27;;
15669;SDS011;18524;45.190;5.732;2023-09-12T05:02:41;12.03;;;10.80;;
15669;SDS011;18524;45.190;5.732;2023-09-12T05:07:32;12.07;;;10.87;;
15669;SDS011;18524;45.190;5.732;2023-09-12T05:12:22;11.83;;;10.73;;
15669;SDS011;18524;45.190;5.732;2023-09-12T05:17:12;12.37;;;11.17;;
15669;SDS011;18524;45.190;5.732;2023-09-12T05:22:03;12.30;;;11.20;;
15669;SDS011;18524;45.190;5.732;2023-09-12T05:26:53;11.17;;;10.17;;
15669;SDS011;18524;45.190;5.732;2023-09-12T05:31:44;11.80;;;10.63;;
15669;SDS011;18524;45.190;5.732;2023-09-12T05:36:34;11.53;;;10.43;;
15669;SDS011;18524;45.190;5.732;2023-09-12T05:41:24;11.90;;;10.70;;
15669;SDS011;18524;45.190;5.732;2023-09-12T05:46:15;11.23;;;10.13;;
15669;SDS011;18524;45.190;5.732;2023-09-12T05:51:05;10.37;;;9.37;;
15669;SDS011;18524;45.190;5.732;2023-09-12T05:55:55;11.57;;;10.37;;
15669;SDS011;18524;45.190;5.732;2023-09-12T06:00:46;10.50;;;9.47;;
15669;SDS011;18524;45.190;5.732;2023-09-12T06:05:37;10.10;;;8.90;;
15669;SDS011;18524;45.190;5.732;2023-09-12T06:10:28;11.13;;;10.03;;
15669;SDS011;18524;45.190;5.732;2023-09-12T06:15:18;11.27;;;9.77;;
15669;SDS011;18524;45.190;5.732;2023-09-12T06:20:09;10.97;;;9.87;;
15669;SDS011;18524;45.190;5.732;2023-09-12T06:25:00;12.10;;;10.57;;
15669;SDS011;18524;45.190;5.732;2023-09-12T06:29:50;12.17;;;10.97;;
15669;SDS011;18524;45.190;5.732;2023-09-12T06:34:40;12.67;;;11.37;;
15669;SDS011;18524;45.190;5.732;2023-09-12T06:39:32;12.77;;;11.47;;
15669;SDS011;18524;45.190;5.732;2023-09-12T06:44:22;11.87;;;10.60;;
15669;SDS011;18524;45.190;5.732;2023-09-12T06:49:12;12.13;;;10.93;;
15669;SDS011;18524;45.190;5.732;2023-09-12T06:54:03;12.13;;;10.93;;
15669;SDS011;18524;45.190;5.732;2023-09-12T06:58:53;12.90;;;11.30;;
15669;SDS011;18524;45.190;5.732;2023-09-12T07:03:45;14.27;;;10.00;;
15669;SDS011;18524;45.190;5.732;2023-09-12T07:08:35;16.30;;;10.10;;
15669;SDS011;18524;45.190;5.732;2023-09-12T07:13:26;17.90;;;12.30;;
15669;SDS011;18524;45.190;5.732;2023-09-12T07:18:16;15.53;;;11.00;;
15669;SDS011;18524;45.190;5.732;2023-09-12T07:23:08;15.47;;;9.80;;
15669;SDS011;18524;45.190;5.732;2023-09-12T07:27:58;11.63;;;10.40;;
15669;SDS011;18524;45.190;5.732;2023-09-12T07:32:49;10.90;;;9.73;;
15669;SDS011;18524;45.190;5.732;2023-09-12T07:37:40;11.13;;;9.37;;
15669;SDS011;18524;45.190;5.732;2023-09-12T07:42:30;13.53;;;10.97;;
15669;SDS011;18524;45.190;5.732;2023-09-12T07:47:21;11.83;;;10.23;;
15669;SDS011;18524;45.190;5.732;2023-09-12T07:52:11;10.07;;;9.13;;
15669;SDS011;18524;45.190;5.732;2023-09-12T07:57:01;10.40;;;8.93;;
15669;SDS011;18524;45.190;5.732;2023-09-12T08:01:52;11.20;;;8.00;;
15669;SDS011;18524;45.190;5.732;2023-09-12T08:06:42;8.73;;;8.00;;
15669;SDS011;18524;45.190;5.732;2023-09-12T08:11:33;9.40;;;7.27;;
15669;SDS011;18524;45.190;5.732;2023-09-12T08:16:23;8.10;;;6.67;;
15669;SDS011;18524;45.190;5.732;2023-09-12T08:21:13;10.83;;;7.00;;
15669;SDS011;18524;45.190;5.732;2023-09-12T08:26:04;12.13;;;8.03;;
15669;SDS011;18524;45.190;5.732;2023-09-12T08:30:54;8.53;;;7.03;;
15669;SDS011;18524;45.190;5.732;2023-09-12T08:35:45;8.10;;;6.70;;
15669;SDS011;18524;45.190;5.732;2023-09-12T08:40:35;7.77;;;6.73;;
15669;SDS011;18524;45.190;5.732;2023-09-12T08:45:26;7.17;;;6.40;;
15669;SDS011;18524;45.190;5.732;2023-09-12T08:50:17;6.97;;;6.27;;
15669;SDS011;18524;45.190;5.732;2023-09-12T08:55:07;7.10;;;6.50;;
15669;SDS011;18524;45.190;5.732;2023-09-12T08:59:59;6.23;;;5.73;;
15669;SDS011;18524;45.190;5.732;2023-09-12T09:04:56;6.40;;;5.80;;
15669;SDS011;18524;45.190;5.732;2023-09-12T09:09:48;8.87;;;6.40;;
15669;SDS011;18524;45.190;5.732;2023-09-12T09:14:41;7.10;;;6.30;;
15669;SDS011;18524;45.190;5.732;2023-09-12T09:19:44;7.13;;;6.37;;
15669;SDS011;18524;45.190;5.732;2023-09-12T09:24:35;7.07;;;6.37;;
15669;SDS011;18524;45.190;5.732;2023-09-12T09:29:25;6.50;;;5.80;;
15669;SDS011;18524;45.190;5.732;2023-09-12T09:34:21;8.50;;;5.80;;
15669;SDS011;18524;45.190;5.732;2023-09-12T09:39:13;7.20;;;6.13;;
15669;SDS011;18524;45.190;5.732;2023-09-12T09:44:07;6.27;;;5.67;;
15669;SDS011;18524;45.190;5.732;2023-09-12T09:48:58;6.63;;;6.10;;
15669;SDS011;18524;45.190;5.732;2023-09-12T09:53:52;6.10;;;5.50;;
15669;SDS011;18524;45.190;5.732;2023-09-12T09:58:51;7.20;;;6.60;;
15669;SDS011;18524;45.190;5.732;2023-09-12T10:03:46;7.00;;;6.40;;
15669;SDS011;18524;45.190;5.732;2023-09-12T10:08:40;7.00;;;6.50;;
15669;SDS011;18524;45.190;5.732;2023-09-12T10:13:33;8.43;;;6.10;;
15669;SDS011;18524;45.190;5.732;2023-09-12T10:18:25;6.47;;;5.97;;
15669;SDS011;18524;45.190;5.732;2023-09-12T10:23:23;6.53;;;6.03;;
15669;SDS011;18524;45.190;5.732;2023-09-12T10:28:20;7.00;;;6.50;;
15669;SDS011;18524;45.190;5.732;2023-09-12T10:33:11;9.30;;;8.40;;
15669;SDS011;18524;45.190;5.732;2023-09-12T10:38:04;7.10;;;6.50;;
15669;SDS011;18524;45.190;5.732;2023-09-12T10:42:57;7.67;;;7.10;;
15669;SDS011;18524;45.190;5.732;2023-09-12T10:47:50;9.57;;;8.77;;
15669;SDS011;18524;45.190;5.732;2023-09-12T10:52:41;7.60;;;7.00;;
15669;SDS011;18524;45.190;5.732;2023-09-12T10:57:33;7.27;;;6.57;;
15669;SDS011;18524;45.190;5.732;2023-09-12T11:02:27;7.13;;;6.57;;
15669;SDS011;18524;45.190;5.732;2023-09-12T11:07:31;6.93;;;6.43;;
15669;SDS011;18524;45.190;5.732;2023-09-12T11:12:34;6.23;;;5.73;;
15669;SDS011;18524;45.190;5.732;2023-09-12T11:17:26;8.20;;;7.50;;
15669;SDS011;18524;45.190;5.732;2023-09-12T11:22:23;9.00;;;8.20;;
15669;SDS011;18524;45.190;5.732;2023-09-12T11:27:15;9.10;;;8.40;;
15669;SDS011;18524;45.190;5.732;2023-09-12T11:32:07;9.20;;;8.47;;
15669;SDS011;18524;45.190;5.732;2023-09-12T11:36:58;8.13;;;7.33;;
15669;SDS011;18524;45.190;5.732;2023-09-12T11:41:50;7.23;;;6.73;;
15669;SDS011;18524;45.190;5.732;2023-09-12T11:46:41;6.63;;;6.13;;
15669;SDS011;18524;45.190;5.732;2023-09-12T11:51:32;7.00;;;6.27;;
15669;SDS011;18524;45.190;5.732;2023-09-12T11:56:22;6.93;;;6.43;;
15669;SDS011;18524;45.190;5.732;2023-09-12T12:01:13;6.90;;;6.30;;
15669;SDS011;18524;45.190;5.732;2023-09-12T12:06:04;6.97;;;6.43;;
15669;SDS011;18524;45.190;5.732;2023-09-12T12:10:54;7.27;;;6.60;;
15669;SDS011;18524;45.190;5.732;2023-09-12T12:15:45;6.90;;;6.20;;
15669;SDS011;18524;45.190;5.732;2023-09-12T12:20:36;6.97;;;6.30;;
15669;SDS011;18524;45.190;5.732;2023-09-12T12:25:27;7.20;;;6.60;;
15669;SDS011;18524;45.190;5.732;2023-09-12T12:30:23;8.20;;;7.50;;
15669;SDS011;18524;45.190;5.732;2023-09-12T12:35:17;8.70;;;7.90;;
15669;SDS011;18524;45.190;5.732;2023-09-12T12:40:12;7.97;;;7.37;;
15669;SDS011;18524;45.190;5.732;2023-09-12T12:45:10;8.33;;;7.60;;
15669;SDS011;18524;45.190;5.732;2023-09-12T12:50:11;7.90;;;7.27;;
15669;SDS011;18524;45.190;5.732;2023-09-12T12:55:11;8.17;;;7.57;;
15669;SDS011;18524;45.190;5.732;2023-09-12T13:00:04;9.10;;;8.30;;
15669;SDS011;18524;45.190;5.732;2023-09-12T13:05:28;8.73;;;7.93;;
15669;SDS011;18524;45.190;5.732;2023-09-12T13:10:19;9.00;;;8.30;;
15669;SDS011;18524;45.190;5.732;2023-09-12T13:15:11;9.53;;;8.67;;
15669;SDS011;18524;45.190;5.732;2023-09-12T13:20:02;9.03;;;8.23;;
15669;SDS011;18524;45.190;5.732;2023-09-12T13:24:53;9.50;;;8.80;;
15669;SDS011;18524;45.190;5.732;2023-09-12T13:29:44;9.43;;;8.73;;
15669;SDS011;18524;45.190;5.732;2023-09-12T13:34:35;9.70;;;8.70;;
15669;SDS011;18524;45.190;5.732;2023-09-12T13:39:25;10.27;;;9.33;;
15669;SDS011;18524;45.190;5.732;2023-09-12T13:44:16;9.77;;;8.97;;
15669;SDS011;18524;45.190;5.732;2023-09-12T13:49:07;10.00;;;9.20;;
15669;SDS011;18524;45.190;5.732;2023-09-12T13:53:57;10.00;;;9.10;;
15669;SDS011;18524;45.190;5.732;2023-09-12T13:58:47;9.03;;;8.07;;
15669;SDS011;18524;45.190;5.732;2023-09-12T14:03:38;8.67;;;7.87;;
15669;SDS011;18524;45.190;5.732;2023-09-12T14:08:28;8.10;;;7.43;;
15669;SDS011;18524;45.190;5.732;2023-09-12T14:13:19;8.43;;;7.30;;
15669;SDS011;18524;45.190;5.732;2023-09-12T14:18:09;8.20;;;7.60;;
15669;SDS011;18524;45.190;5.732;2023-09-12T14:22:59;7.90;;;7.17;;
15669;SDS011;18524;45.190;5.732;2023-09-12T14:27:51;8.13;;;7.33;;
15669;SDS011;18524;45.190;5.732;2023-09-12T14:32:41;9.40;;;7.90;;
15669;SDS011;18524;45.190;5.732;2023-09-12T14:37:32;7.77;;;7.17;;
15669;SDS011;18524;45.190;5.732;2023-09-12T14:42:23;7.57;;;6.97;;
15669;SDS011;18524;45.190;5.732;2023-09-12T14:47:13;8.53;;;7.23;;
15669;SDS011;18524;45.190;5.732;2023-09-12T14:52:03;7.40;;;6.70;;
15669;SDS011;18524;45.190;5.732;2023-09-12T14:56:54;8.30;;;7.60;;
15669;SDS011;18524;45.190;5.732;2023-09-12T15:01:45;7.63;;;6.77;;
15669;SDS011;18524;45.190;5.732;2023-09-12T15:06:35;7.70;;;7.10;;
15669;SDS011;18524;45.190;5.732;2023-09-12T15:11:25;8.33;;;7.53;;
15669;SDS011;18524;45.190;5.732;2023-09-12T15:16:16;7.77;;;6.90;;
15669;SDS011;18524;45.190;5.732;2023-09-12T15:21:06;8.47;;;7.67;;
15669;SDS011;18524;45.190;5.732;2023-09-12T15:25:57;8.80;;;7.93;;
15669;SDS011;18524;45.190;5.732;2023-09-12T15:30:47;8.63;;;7.67;;
15669;SDS011;18524;45.190;5.732;2023-09-12T15:35:37;8.40;;;7.70;;
15669;SDS011;18524;45.190;5.732;2023-09-12T15:40:28;8.20;;;7.60;;
15669;SDS011;18524;45.190;5.732;2023-09-12T15:45:18;8.87;;;8.07;;
15669;SDS011;18524;45.190;5.732;2023-09-12T15:50:10;9.23;;;8.43;;
15669;SDS011;18524;45.190;5.732;2023-09-12T15:55:00;8.37;;;7.77;;
15669;SDS011;18524;45.190;5.732;2023-09-12T15:59:50;9.57;;;7.73;;
15669;SDS011;18524;45.190;5.732;2023-09-12T16:04:41;8.70;;;7.90;;
15669;SDS011;18524;45.190;5.732;2023-09-12T16:09:31;8.33;;;7.73;;
15669;SDS011;18524;45.190;5.732;2023-09-12T16:14:21;10.87;;;8.53;;
15669;SDS011;18524;45.190;5.732;2023-09-12T16:19:12;8.83;;;8.13;;
15669;SDS011;18524;45.190;5.732;2023-09-12T16:24:02;10.40;;;9.40;;
15669;SDS011;18524;45.190;5.732;2023-09-12T16:28:53;10.27;;;9.37;;
15669;SDS011;18524;45.190;5.732;2023-09-12T16:33:43;10.20;;;9.37;;
15669;SDS011;18524;45.190;5.732;2023-09-12T16:38:33;9.40;;;8.60;;
15669;SDS011;18524;45.190;5.732;2023-09-12T16:43:24;9.50;;;8.53;;
15669;SDS011;18524;45.190;5.732;2023-09-12T16:48:14;9.13;;;8.33;;
15669;SDS011;18524;45.190;5.732;2023-09-12T16:53:05;8.93;;;8.13;;
15669;SDS011;18524;45.190;5.732;2023-09-12T16:57:55;10.47;;;9.20;;
15669;SDS011;18524;45.190;5.732;2023-09-12T17:02:45;9.73;;;8.77;;
15669;SDS011;18524;45.190;5.732;2023-09-12T17:07:36;9.33;;;8.53;;
15669;SDS011;18524;45.190;5.732;2023-09-12T17:12:26;10.43;;;9.47;;
15669;SDS011;18524;45.190;5.732;2023-09-12T17:17:17;10.27;;;9.27;;
15669;SDS011;18524;45.190;5.732;2023-09-12T17:22:07;9.10;;;8.30;;
15669;SDS011;18524;45.190;5.732;2023-09-12T17:26:57;10.80;;;9.10;;
15669;SDS011;18524;45.190;5.732;2023-09-12T17:31:48;9.63;;;8.77;;
15669;SDS011;18524;45.190;5.732;2023-09-12T17:36:39;10.20;;;9.30;;
15669;SDS011;18524;45.190;5.732;2023-09-12T17:41:29;10.10;;;9.20;;
15669;SDS011;18524;45.190;5.732;2023-09-12T17:46:19;10.53;;;9.53;;
15669;SDS011;18524;45.190;5.732;2023-09-12T17:51:10;9.93;;;9.07;;
15669;SDS011;18524;45.190;5.732;2023-09-12T17:56:00;9.97;;;9.07;;
15669;SDS011;18524;45.190;5.732;2023-09-12T18:00:57;10.17;;;8.77;;
15669;SDS011;18524;45.190;5.732;2023-09-12T18:05:48;10.17;;;8.80;;
15669;SDS011;18524;45.190;5.732;2023-09-12T18:10:38;8.97;;;8.07;;
15669;SDS011;18524;45.190;5.732;2023-09-12T18:15:29;9.77;;;8.87;;
15669;SDS011;18524;45.190;5.732;2023-09-12T18:20:19;9.43;;;8.50;;
15669;SDS011;18524;45.190;5.732;2023-09-12T18:25:09;8.87;;;8.17;;
15669;SDS011;18524;45.190;5.732;2023-09-12T18:30:00;9.77;;;8.87;;
15669;SDS011;18524;45.190;5.732;2023-09-12T18:34:50;9.70;;;8.80;;
15669;SDS011;18524;45.190;5.732;2023-09-12T18:39:41;9.57;;;8.67;;
15669;SDS011;18524;45.190;5.732;2023-09-12T18:44:31;10.77;;;9.77;;
15669;SDS011;18524;45.190;5.732;2023-09-12T18:49:22;10.60;;;9.53;;
15669;SDS011;18524;45.190;5.732;2023-09-12T18:54:19;11.13;;;10.13;;
15669;SDS011;18524;45.190;5.732;2023-09-12T18:59:10;11.63;;;10.50;;
15669;SDS011;18524;45.190;5.732;2023-09-12T19:04:19;15.43;;;10.73;;
15669;SDS011;18524;45.190;5.732;2023-09-12T19:09:14;11.40;;;10.40;;
15669;SDS011;18524;45.190;5.732;2023-09-12T19:14:04;11.90;;;10.70;;
15669;SDS011;18524;45.190;5.732;2023-09-12T19:18:55;10.57;;;9.57;;
15669;SDS011;18524;45.190;5.732;2023-09-12T19:23:45;10.87;;;9.87;;
15669;SDS011;18524;45.190;5.732;2023-09-12T19:28:35;10.93;;;9.97;;
15669;SDS011;18524;45.190;5.732;2023-09-12T19:33:26;10.27;;;9.30;;
15669;SDS011;18524;45.190;5.732;2023-09-12T19:38:16;9.83;;;9.03;;
15669;SDS011;18524;45.190;5.732;2023-09-12T19:43:07;11.03;;;9.90;;
15669;SDS011;18524;45.190;5.732;2023-09-12T19:47:59;10.77;;;9.53;;
15669;SDS011;18524;45.190;5.732;2023-09-12T19:52:50;11.27;;;10.17;;
15669;SDS011;18524;45.190;5.732;2023-09-12T19:57:40;10.73;;;9.80;;
15669;SDS011;18524;45.190;5.732;2023-09-12T20:02:35;9.70;;;8.97;;
15669;SDS011;18524;45.190;5.732;2023-09-12T20:07:26;9.90;;;9.10;;
15669;SDS011;18524;45.190;5.732;2023-09-12T20:12:16;9.67;;;8.87;;
15669;SDS011;18524;45.190;5.732;2023-09-12T20:17:06;10.90;;;9.87;;
15669;SDS011;18524;45.190;5.732;2023-09-12T20:21:57;10.13;;;9.23;;
15669;SDS011;18524;45.190;5.732;2023-09-12T20:26:47;9.70;;;8.87;;
15669;SDS011;18524;45.190;5.732;2023-09-12T20:31:37;10.10;;;9.10;;
15669;SDS011;18524;45.190;5.732;2023-09-12T20:36:28;9.83;;;8.90;;
15669;SDS011;18524;45.190;5.732;2023-09-12T20:41:19;10.03;;;9.13;;
15669;SDS011;18524;45.190;5.732;2023-09-12T20:46:09;9.97;;;8.97;;
15669;SDS011;18524;45.190;5.732;2023-09-12T20:51:00;9.57;;;8.77;;
15669;SDS011;18524;45.190;5.732;2023-09-12T20:55:51;8.90;;;8.20;;
15669;SDS011;18524;45.190;5.732;2023-09-12T21:00:41;10.00;;;9.20;;
15669;SDS011;18524;45.190;5.732;2023-09-12T21:05:33;9.60;;;8.70;;
15669;SDS011;18524;45.190;5.732;2023-09-12T21:10:23;10.57;;;9.77;;
15669;SDS011;18524;45.190;5.732;2023-09-12T21:15:14;9.97;;;9.07;;
15669;SDS011;18524;45.190;5.732;2023-09-12T21:20:04;10.53;;;9.47;;
15669;SDS011;18524;45.190;5.732;2023-09-12T21:24:56;10.87;;;9.80;;
15669;SDS011;18524;45.190;5.732;2023-09-12T21:29:46;12.37;;;11.20;;
15669;SDS011;18524;45.190;5.732;2023-09-12T21:34:37;13.93;;;12.33;;
15669;SDS011;18524;45.190;5.732;2023-09-12T21:39:27;13.33;;;12.03;;
15669;SDS011;18524;45.190;5.732;2023-09-12T21:44:19;12.70;;;11.40;;
15669;SDS011;18524;45.190;5.732;2023-09-12T21:49:10;10.67;;;9.70;;
15669;SDS011;18524;45.190;5.732;2023-09-12T21:54:00;11.43;;;10.20;;
15669;SDS011;18524;45.190;5.732;2023-09-12T21:58:51;11.37;;;10.30;;
15669;SDS011;18524;45.190;5.732;2023-09-12T22:03:41;10.00;;;9.10;;
15669;SDS011;18524;45.190;5.732;2023-09-12T22:08:32;10.70;;;9.70;;
15669;SDS011;18524;45.190;5.732;2023-09-12T22:13:22;12.63;;;11.40;;
15669;SDS011;18524;45.190;5.732;2023-09-12T22:18:12;12.27;;;11.07;;
15669;SDS011;18524;45.190;5.732;2023-09-12T22:23:03;11.93;;;10.73;;
15669;SDS011;18524;45.190;5.732;2023-09-12T22:27:53;11.80;;;10.60;;
15669;SDS011;18524;45.190;5.732;2023-09-12T22:32:44;11.60;;;10.60;;
15669;SDS011;18524;45.190;5.732;2023-09-12T22:37:34;12.03;;;10.83;;
15669;SDS011;18524;45.190;5.732;2023-09-12T22:42:24;11.40;;;10.30;;
15669;SDS011;18524;45.190;5.732;2023-09-12T22:47:15;11.83;;;10.73;;
15669;SDS011;18524;45.190;5.732;2023-09-12T22:52:06;11.17;;;10.10;;
15669;SDS011;18524;45.190;5.732;2023-09-12T22:56:56;10.93;;;10.03;;
15669;SDS011;18524;45.190;5.732;2023-09-12T23:01:47;10.70;;;9.80;;
15669;SDS011;18524;45.190;5.732;2023-09-12T23:06:37;12.33;;;11.27;;
15669;SDS011;18524;45.190;5.732;2023-09-12T23:11:27;11.40;;;10.43;;
15669;SDS011;18524;45.190;5.732;2023-09-12T23:16:18;11.67;;;10.57;;
15669;SDS011;18524;45.190;5.732;2023-09-12T23:21:08;11.77;;;10.57;;
15669;SDS011;18524;45.190;5.732;2023-09-12T23:25:58;13.50;;;12.10;;
15669;SDS011;18524;45.190;5.732;2023-09-12T23:30:49;13.10;;;11.80;;
15669;SDS011;18524;45.190;5.732;2023-09-12T23:35:39;12.33;;;11.30;;
15669;SDS011;18524;45.190;5.732;2023-09-12T23:40:31;12.20;;;11.10;;
15669;SDS011;18524;45.190;5.732;2023-09-12T23:45:21;12.23;;;11.03;;
15669;SDS011;18524;45.190;5.732;2023-09-12T23:50:12;12.50;;;11.30;;
15669;SDS011;18524;45.190;5.732;2023-09-12T23:55:02;12.60;;;11.07;;
15669;SDS011;18524;45.190;5.732;2023-09-12T23:59:53;12.90;;;11.70;;
